sensor_id;sensor_type;location;lat;lon;timestamp;pressure;altitude;pressure_sealevel;temperature;humidity
62703;BME280;66022;50.448;18.122;2023-02-11T00:05:31;100877.00;;;-0.11;76.05
62703;BME280;66022;50.448;18.122;2023-02-11T00:09:45;100877.03;;;-0.13;76.27
62703;BME280;66022;50.448;18.122;2023-02-11T00:14:00;100874.83;;;-0.17;76.93
62703;BME280;66022;50.448;18.122;2023-02-11T00:18:14;100871.48;;;-0.27;77.41
62703;BME280;66022;50.448;18.122;2023-02-11T00:22:28;100866.77;;;-0.32;77.24
62703;BME280;66022;50.448;18.122;2023-02-11T00:26:41;100861.22;;;-0.40;79.40
62703;BME280;66022;50.448;18.122;2023-02-11T00:30:56;100856.59;;;-0.42;77.11
62703;BME280;66022;50.448;18.122;2023-02-11T00:35:09;100851.09;;;-0.43;77.31
62703;BME280;66022;50.448;18.122;2023-02-11T00:39:24;100843.51;;;-0.44;77.38
62703;BME280;66022;50.448;18.122;2023-02-11T00:43:37;100839.53;;;-0.45;77.20
62703;BME280;66022;50.448;18.122;2023-02-11T00:47:52;100835.32;;;-0.46;77.83
62703;BME280;66022;50.448;18.122;2023-02-11T00:52:06;100830.16;;;-0.45;76.76
62703;BME280;66022;50.448;18.122;2023-02-11T00:56:19;100824.10;;;-0.50;79.29
62703;BME280;66022;50.448;18.122;2023-02-11T01:00:34;100817.07;;;-0.47;76.80
62703;BME280;66022;50.448;18.122;2023-02-11T01:04:47;100808.76;;;-0.45;76.96
62703;BME280;66022;50.448;18.122;2023-02-11T01:09:02;100799.50;;;-0.48;77.50
62703;BME280;66022;50.448;18.122;2023-02-11T01:13:18;100789.98;;;-0.48;77.73
62703;BME280;66022;50.448;18.122;2023-02-11T01:17:31;100782.40;;;-0.50;79.10
62703;BME280;66022;50.448;18.122;2023-02-11T01:21:43;100774.64;;;-0.48;77.93
62703;BME280;66022;50.448;18.122;2023-02-11T01:25:58;100765.33;;;-0.49;79.70
62703;BME280;66022;50.448;18.122;2023-02-11T01:30:12;100757.58;;;-0.45;78.02
62703;BME280;66022;50.448;18.122;2023-02-11T01:34:25;100750.12;;;-0.41;78.11
62703;BME280;66022;50.448;18.122;2023-02-11T01:38:39;100743.11;;;-0.41;78.31
62703;BME280;66022;50.448;18.122;2023-02-11T01:42:53;100736.92;;;-0.39;78.21
62703;BME280;66022;50.448;18.122;2023-02-11T01:47:08;100730.97;;;-0.42;79.77
62703;BME280;66022;50.448;18.122;2023-02-11T01:51:26;100726.28;;;-0.44;78.62
62703;BME280;66022;50.448;18.122;2023-02-11T01:55:35;100721.33;;;-0.46;78.72
62703;BME280;66022;50.448;18.122;2023-02-11T02:04:04;100705.68;;;-0.49;78.48
62703;BME280;66022;50.448;18.122;2023-02-11T02:08:22;100697.94;;;-0.54;79.13
62703;BME280;66022;50.448;18.122;2023-02-11T02:12:32;100690.09;;;-0.53;78.36
62703;BME280;66022;50.448;18.122;2023-02-11T02:16:46;100681.08;;;-0.54;80.15
62703;BME280;66022;50.448;18.122;2023-02-11T02:42:10;100648.08;;;-0.41;77.82
62703;BME280;66022;50.448;18.122;2023-02-11T02:46:25;100643.53;;;-0.44;80.51
62703;BME280;66022;50.448;18.122;2023-02-11T02:50:38;100639.84;;;-0.41;78.09
62703;BME280;66022;50.448;18.122;2023-02-11T02:54:56;100635.86;;;-0.42;78.35
62703;BME280;66022;50.448;18.122;2023-02-11T03:03:27;100627.55;;;-0.47;79.07
62703;BME280;66022;50.448;18.122;2023-02-11T03:07:40;100621.73;;;-0.50;80.31
62703;BME280;66022;50.448;18.122;2023-02-11T03:11:48;100616.14;;;-0.51;79.04
62703;BME280;66022;50.448;18.122;2023-02-11T03:20:16;100600.72;;;-0.53;79.12
62703;BME280;66022;50.448;18.122;2023-02-11T03:24:32;100593.74;;;-0.54;78.81
62703;BME280;66022;50.448;18.122;2023-02-11T03:33:17;100571.81;;;-0.55;78.60
62703;BME280;66022;50.448;18.122;2023-02-11T03:37:16;100563.36;;;-0.54;79.71
62703;BME280;66022;50.448;18.122;2023-02-11T03:41:26;100553.66;;;-0.51;78.41
62703;BME280;66022;50.448;18.122;2023-02-11T03:45:40;100544.64;;;-0.48;78.38
62703;BME280;66022;50.448;18.122;2023-02-11T03:49:54;100538.86;;;-0.46;78.36
62703;BME280;66022;50.448;18.122;2023-02-11T03:54:09;100535.40;;;-0.43;78.53
62703;BME280;66022;50.448;18.122;2023-02-11T03:58:22;100532.61;;;-0.47;79.22
62703;BME280;66022;50.448;18.122;2023-02-11T04:02:36;100529.71;;;-0.44;78.16
62703;BME280;66022;50.448;18.122;2023-02-11T04:06:50;100525.23;;;-0.42;79.62
62703;BME280;66022;50.448;18.122;2023-02-11T04:11:04;100520.01;;;-0.36;77.87
62703;BME280;66022;50.448;18.122;2023-02-11T04:15:18;100514.78;;;-0.32;77.90
62703;BME280;66022;50.448;18.122;2023-02-11T04:19:32;100512.81;;;-0.29;78.24
62703;BME280;66022;50.448;18.122;2023-02-11T04:23:46;100508.68;;;-0.27;78.53
62703;BME280;66022;50.448;18.122;2023-02-11T04:28:00;100502.72;;;-0.27;78.95
62703;BME280;66022;50.448;18.122;2023-02-11T04:32:14;100497.85;;;-0.24;78.16
62703;BME280;66022;50.448;18.122;2023-02-11T04:36:28;100493.81;;;-0.25;80.50
62703;BME280;66022;50.448;18.122;2023-02-11T04:40:42;100490.67;;;-0.23;78.12
62703;BME280;66022;50.448;18.122;2023-02-11T04:44:56;100489.17;;;-0.22;77.95
62703;BME280;66022;50.448;18.122;2023-02-11T04:49:13;100487.50;;;-0.20;78.07
62703;BME280;66022;50.448;18.122;2023-02-11T04:53:25;100486.99;;;-0.16;77.60
62703;BME280;66022;50.448;18.122;2023-02-11T04:57:38;100486.31;;;-0.15;78.47
62703;BME280;66022;50.448;18.122;2023-02-11T05:01:52;100484.27;;;-0.10;77.22
62703;BME280;66022;50.448;18.122;2023-02-11T05:06:06;100482.18;;;-0.08;78.79
62703;BME280;66022;50.448;18.122;2023-02-11T05:10:20;100482.56;;;-0.05;77.31
62703;BME280;66022;50.448;18.122;2023-02-11T05:14:34;100483.73;;;-0.03;77.18
62703;BME280;66022;50.448;18.122;2023-02-11T05:18:48;100483.95;;;-0.04;77.51
62703;BME280;66022;50.448;18.122;2023-02-11T05:23:02;100484.48;;;-0.02;77.22
62703;BME280;66022;50.448;18.122;2023-02-11T05:27:16;100482.65;;;-0.03;78.09
62703;BME280;66022;50.448;18.122;2023-02-11T05:31:30;100481.72;;;0.01;77.12
62703;BME280;66022;50.448;18.122;2023-02-11T05:35:44;100480.98;;;0.03;76.93
62703;BME280;66022;50.448;18.122;2023-02-11T05:39:58;100480.05;;;0.07;77.02
62703;BME280;66022;50.448;18.122;2023-02-11T05:44:12;100477.98;;;0.11;76.66
62703;BME280;66022;50.448;18.122;2023-02-11T05:48:26;100473.64;;;0.11;77.22
62703;BME280;66022;50.448;18.122;2023-02-11T05:52:40;100470.06;;;0.17;76.92
62703;BME280;66022;50.448;18.122;2023-02-11T05:56:54;100464.60;;;0.19;78.13
62703;BME280;66022;50.448;18.122;2023-02-11T06:01:08;100458.29;;;0.25;76.78
62703;BME280;66022;50.448;18.122;2023-02-11T06:05:22;100454.89;;;0.29;77.17
62703;BME280;66022;50.448;18.122;2023-02-11T06:09:36;100452.83;;;0.29;77.20
62703;BME280;66022;50.448;18.122;2023-02-11T06:13:50;100450.61;;;0.30;76.98
62703;BME280;66022;50.448;18.122;2023-02-11T06:18:04;100446.45;;;0.29;77.25
62703;BME280;66022;50.448;18.122;2023-02-11T06:22:18;100442.61;;;0.34;76.66
62703;BME280;66022;50.448;18.122;2023-02-11T06:26:32;100441.66;;;0.34;78.47
62703;BME280;66022;50.448;18.122;2023-02-11T06:30:46;100441.80;;;0.37;76.63
62703;BME280;66022;50.448;18.122;2023-02-11T06:35:00;100443.26;;;0.38;76.60
62703;BME280;66022;50.448;18.122;2023-02-11T06:39:14;100446.41;;;0.39;76.53
62703;BME280;66022;50.448;18.122;2023-02-11T06:43:28;100447.78;;;0.42;76.10
62703;BME280;66022;50.448;18.122;2023-02-11T06:47:42;100445.29;;;0.45;76.69
62703;BME280;66022;50.448;18.122;2023-02-11T06:51:56;100441.79;;;0.48;76.30
62703;BME280;66022;50.448;18.122;2023-02-11T06:56:14;100438.50;;;0.44;78.32
62703;BME280;66022;50.448;18.122;2023-02-11T07:00:25;100434.45;;;0.46;76.93
62703;BME280;66022;50.448;18.122;2023-02-11T07:04:38;100431.52;;;0.50;77.03
62703;BME280;66022;50.448;18.122;2023-02-11T07:08:53;100429.00;;;0.53;77.07
62703;BME280;66022;50.448;18.122;2023-02-11T07:13:06;100422.85;;;0.61;76.57
62703;BME280;66022;50.448;18.122;2023-02-11T07:17:20;100416.74;;;0.68;77.69
62703;BME280;66022;50.448;18.122;2023-02-11T07:21:34;100412.59;;;0.77;76.78
62703;BME280;66022;50.448;18.122;2023-02-11T07:25:48;100408.42;;;0.86;76.84
62703;BME280;66022;50.448;18.122;2023-02-11T07:30:02;100405.41;;;0.96;76.16
62703;BME280;66022;50.448;18.122;2023-02-11T07:34:16;100402.62;;;1.09;75.42
62703;BME280;66022;50.448;18.122;2023-02-11T07:38:31;100397.69;;;1.18;75.38
62703;BME280;66022;50.448;18.122;2023-02-11T07:42:44;100394.20;;;1.32;75.40
62703;BME280;66022;50.448;18.122;2023-02-11T07:46:58;100391.04;;;1.42;76.35
62703;BME280;66022;50.448;18.122;2023-02-11T07:51:16;100390.02;;;1.52;75.50
62703;BME280;66022;50.448;18.122;2023-02-11T07:55:26;100389.58;;;1.58;75.90
62703;BME280;66022;50.448;18.122;2023-02-11T07:59:40;100388.98;;;1.63;75.78
62703;BME280;66022;50.448;18.122;2023-02-11T08:03:55;100389.86;;;1.69;75.50
62703;BME280;66022;50.448;18.122;2023-02-11T08:08:08;100391.89;;;1.73;75.90
62703;BME280;66022;50.448;18.122;2023-02-11T08:12:22;100394.09;;;1.83;75.10
62703;BME280;66022;50.448;18.122;2023-02-11T08:16:37;100396.84;;;1.89;75.35
62703;BME280;66022;50.448;18.122;2023-02-11T08:20:50;100397.92;;;1.99;76.17
62703;BME280;66022;50.448;18.122;2023-02-11T08:25:05;100396.81;;;2.10;74.49
62703;BME280;66022;50.448;18.122;2023-02-11T08:29:18;100397.00;;;2.19;74.50
62703;BME280;66022;50.448;18.122;2023-02-11T08:33:32;100395.34;;;2.29;74.04
62703;BME280;66022;50.448;18.122;2023-02-11T08:37:46;100391.13;;;2.39;74.02
62703;BME280;66022;50.448;18.122;2023-02-11T08:42:00;100386.31;;;2.51;73.60
62703;BME280;66022;50.448;18.122;2023-02-11T08:46:15;100384.00;;;2.57;72.23
62703;BME280;66022;50.448;18.122;2023-02-11T08:50:28;100384.89;;;2.68;72.31
62703;BME280;66022;50.448;18.122;2023-02-11T08:54:42;100386.93;;;2.79;71.70
62703;BME280;66022;50.448;18.122;2023-02-11T08:58:56;100389.96;;;2.87;71.99
62703;BME280;66022;50.448;18.122;2023-02-11T09:03:11;100392.61;;;2.95;72.00
62703;BME280;66022;50.448;18.122;2023-02-11T09:07:24;100396.25;;;3.01;72.27
62703;BME280;66022;50.448;18.122;2023-02-11T09:11:39;100399.36;;;3.09;71.71
62703;BME280;66022;50.448;18.122;2023-02-11T09:15:52;100403.53;;;3.16;71.41
62703;BME280;66022;50.448;18.122;2023-02-11T09:20:06;100407.51;;;3.23;72.32
62703;BME280;66022;50.448;18.122;2023-02-11T09:24:20;100412.77;;;3.30;72.29
62703;BME280;66022;50.448;18.122;2023-02-11T09:28:34;100413.39;;;3.30;72.44
62703;BME280;66022;50.448;18.122;2023-02-11T09:32:48;100412.49;;;3.36;72.24
62703;BME280;66022;50.448;18.122;2023-02-11T09:37:02;100413.20;;;3.37;72.96
62703;BME280;66022;50.448;18.122;2023-02-11T09:45:30;100409.20;;;3.49;72.08
62703;BME280;66022;50.448;18.122;2023-02-11T09:49:46;100405.53;;;3.56;72.26
62703;BME280;66022;50.448;18.122;2023-02-11T09:53:59;100402.26;;;3.65;71.19
62703;BME280;66022;50.448;18.122;2023-02-11T09:58:13;100396.62;;;3.69;71.36
62703;BME280;66022;50.448;18.122;2023-02-11T10:02:33;100391.02;;;3.78;71.80
62703;BME280;66022;50.448;18.122;2023-02-11T10:23:37;100337.30;;;4.19;69.86
62703;BME280;66022;50.448;18.122;2023-02-11T10:27:51;100322.31;;;4.27;69.68
62703;BME280;66022;50.448;18.122;2023-02-11T10:32:06;100309.89;;;4.38;68.98
62703;BME280;66022;50.448;18.122;2023-02-11T10:36:26;100298.65;;;4.43;68.91
62703;BME280;66022;50.448;18.122;2023-02-11T10:40:35;100291.38;;;4.53;68.83
62703;BME280;66022;50.448;18.122;2023-02-11T10:49:00;100279.00;;;4.69;69.50
62703;BME280;66022;50.448;18.122;2023-02-11T10:53:18;100274.00;;;4.78;69.58
62703;BME280;66022;50.448;18.122;2023-02-11T10:57:33;100269.72;;;4.86;69.37
62703;BME280;66022;50.448;18.122;2023-02-11T11:01:47;100266.58;;;4.96;69.48
62703;BME280;66022;50.448;18.122;2023-02-11T11:06:00;100262.95;;;5.03;67.95
62703;BME280;66022;50.448;18.122;2023-02-11T11:14:24;100254.22;;;5.21;68.87
62703;BME280;66022;50.448;18.122;2023-02-11T11:18:39;100247.75;;;5.23;68.55
62703;BME280;66022;50.448;18.122;2023-02-11T11:23:05;100243.00;;;5.29;68.41
62703;BME280;66022;50.448;18.122;2023-02-11T11:27:11;100239.61;;;5.30;68.53
62703;BME280;66022;50.448;18.122;2023-02-11T11:31:21;100237.08;;;5.35;67.71
62703;BME280;66022;50.448;18.122;2023-02-11T11:35:34;100234.39;;;5.38;68.21
62703;BME280;66022;50.448;18.122;2023-02-11T11:44:11;100232.33;;;5.45;67.60
62703;BME280;66022;50.448;18.122;2023-02-11T11:48:21;100233.92;;;5.44;68.05
62703;BME280;66022;50.448;18.122;2023-02-11T12:06:02;100243.98;;;5.57;69.14
62703;BME280;66022;50.448;18.122;2023-02-11T12:22:17;100235.82;;;5.75;69.67
62703;BME280;66022;50.448;18.122;2023-02-11T12:26:23;100233.48;;;5.76;68.78
62703;BME280;66022;50.448;18.122;2023-02-11T12:43:29;100219.85;;;5.93;70.04
62703;BME280;66022;50.448;18.122;2023-02-11T12:51:49;100205.88;;;5.99;70.51
62703;BME280;66022;50.448;18.122;2023-02-11T12:56:04;100196.34;;;5.98;70.14
62703;BME280;66022;50.448;18.122;2023-02-11T13:00:18;100191.60;;;5.98;70.89
62703;BME280;66022;50.448;18.122;2023-02-11T13:04:37;100185.50;;;5.98;71.27
62703;BME280;66022;50.448;18.122;2023-02-11T13:08:43;100182.26;;;5.94;71.94
62703;BME280;66022;50.448;18.122;2023-02-11T13:12:56;100179.35;;;5.94;71.85
62703;BME280;66022;50.448;18.122;2023-02-11T13:17:18;100175.07;;;5.91;72.38
62703;BME280;66022;50.448;18.122;2023-02-11T13:25:43;100166.82;;;5.91;72.48
62703;BME280;66022;50.448;18.122;2023-02-11T13:30:01;100154.97;;;5.91;72.52
62703;BME280;66022;50.448;18.122;2023-02-11T13:38:21;100141.02;;;5.90;72.55
62703;BME280;66022;50.448;18.122;2023-02-11T13:42:46;100138.53;;;5.92;72.56
62703;BME280;66022;50.448;18.122;2023-02-11T13:51:04;100136.61;;;5.92;72.63
62703;BME280;66022;50.448;18.122;2023-02-11T13:55:22;100135.53;;;5.92;72.70
62703;BME280;66022;50.448;18.122;2023-02-11T14:04:04;100136.88;;;5.94;72.53
62703;BME280;66022;50.448;18.122;2023-02-11T14:16:27;100137.27;;;5.90;72.93
62703;BME280;66022;50.448;18.122;2023-02-11T14:20:41;100136.03;;;5.91;72.29
62703;BME280;66022;50.448;18.122;2023-02-11T14:24:56;100136.86;;;5.92;72.68
62703;BME280;66022;50.448;18.122;2023-02-11T14:29:15;100138.20;;;5.92;72.53
62703;BME280;66022;50.448;18.122;2023-02-11T14:41:51;100144.15;;;5.93;72.83
62703;BME280;66022;50.448;18.122;2023-02-11T14:46:06;100147.69;;;5.89;73.18
62703;BME280;66022;50.448;18.122;2023-02-11T14:50:25;100148.75;;;5.89;73.13
62703;BME280;66022;50.448;18.122;2023-02-11T14:54:33;100151.09;;;5.89;73.65
62703;BME280;66022;50.448;18.122;2023-02-11T14:58:47;100152.37;;;5.85;73.98
62703;BME280;66022;50.448;18.122;2023-02-11T15:03:02;100155.33;;;5.86;74.16
62703;BME280;66022;50.448;18.122;2023-02-11T15:07:15;100158.72;;;5.84;75.26
62703;BME280;66022;50.448;18.122;2023-02-11T15:11:33;100159.74;;;5.86;74.41
62703;BME280;66022;50.448;18.122;2023-02-11T15:15:43;100162.32;;;5.87;74.70
62703;BME280;66022;50.448;18.122;2023-02-11T15:19:58;100165.08;;;5.87;74.97
62703;BME280;66022;50.448;18.122;2023-02-11T15:28:26;100172.38;;;5.82;76.02
62703;BME280;66022;50.448;18.122;2023-02-11T15:32:39;100176.45;;;5.83;76.59
62703;BME280;66022;50.448;18.122;2023-02-11T15:36:53;100182.72;;;5.82;77.62
62703;BME280;66022;50.448;18.122;2023-02-11T15:41:07;100188.64;;;5.82;76.81
62703;BME280;66022;50.448;18.122;2023-02-11T15:45:27;100194.61;;;5.81;77.59
62703;BME280;66022;50.448;18.122;2023-02-11T15:49:35;100200.02;;;5.79;78.75
62703;BME280;66022;50.448;18.122;2023-02-11T15:53:53;100206.49;;;5.78;79.54
62703;BME280;66022;50.448;18.122;2023-02-11T15:58:03;100213.61;;;5.74;81.39
62703;BME280;66022;50.448;18.122;2023-02-11T16:02:21;100218.84;;;5.71;80.88
62703;BME280;66022;50.448;18.122;2023-02-11T16:06:38;100223.33;;;5.64;85.57
62703;BME280;66022;50.448;18.122;2023-02-11T16:10:58;100227.73;;;5.61;82.26
62703;BME280;66022;50.448;18.122;2023-02-11T16:19:20;100235.55;;;5.54;82.88
62703;BME280;66022;50.448;18.122;2023-02-11T16:23:34;100237.08;;;5.51;82.98
62703;BME280;66022;50.448;18.122;2023-02-11T16:27:50;100236.16;;;5.46;84.48
62703;BME280;66022;50.448;18.122;2023-02-11T16:32:13;100236.19;;;5.42;83.70
62703;BME280;66022;50.448;18.122;2023-02-11T16:36:15;100236.92;;;5.33;87.01
62703;BME280;66022;50.448;18.122;2023-02-11T16:40:30;100238.11;;;5.30;84.47
62703;BME280;66022;50.448;18.122;2023-02-11T16:44:44;100239.14;;;5.27;84.06
62703;BME280;66022;50.448;18.122;2023-02-11T16:49:07;100240.34;;;5.23;84.87
62703;BME280;66022;50.448;18.122;2023-02-11T16:53:12;100241.89;;;5.21;84.58
62703;BME280;66022;50.448;18.122;2023-02-11T16:57:25;100244.45;;;5.18;86.23
62703;BME280;66022;50.448;18.122;2023-02-11T17:01:40;100248.08;;;5.18;84.68
62703;BME280;66022;50.448;18.122;2023-02-11T17:05:53;100250.89;;;5.15;86.68
62703;BME280;66022;50.448;18.122;2023-02-11T17:14:21;100256.35;;;5.13;85.07
62703;BME280;66022;50.448;18.122;2023-02-11T17:18:36;100258.40;;;5.11;88.79
62703;BME280;66022;50.448;18.122;2023-02-11T17:22:50;100262.22;;;5.15;86.38
62703;BME280;66022;50.448;18.122;2023-02-11T17:27:04;100264.33;;;5.16;89.29
62703;BME280;66022;50.448;18.122;2023-02-11T17:31:17;100267.19;;;5.20;86.64
62703;BME280;66022;50.448;18.122;2023-02-11T17:35:31;100270.67;;;5.22;86.24
62703;BME280;66022;50.448;18.122;2023-02-11T17:39:46;100271.69;;;5.24;86.62
62703;BME280;66022;50.448;18.122;2023-02-11T17:44:00;100272.05;;;5.26;86.58
62703;BME280;66022;50.448;18.122;2023-02-11T17:48:13;100270.67;;;5.23;87.98
62703;BME280;66022;50.448;18.122;2023-02-11T17:52:28;100270.70;;;5.24;87.51
62703;BME280;66022;50.448;18.122;2023-02-11T17:56:41;100272.63;;;5.22;91.70
62703;BME280;66022;50.448;18.122;2023-02-11T18:00:56;100274.58;;;5.22;87.73
62703;BME280;66022;50.448;18.122;2023-02-11T18:05:09;100276.58;;;5.22;87.69
62703;BME280;66022;50.448;18.122;2023-02-11T18:09:24;100277.29;;;5.21;88.42
62703;BME280;66022;50.448;18.122;2023-02-11T18:13:37;100278.97;;;5.21;88.25
62703;BME280;66022;50.448;18.122;2023-02-11T18:17:53;100281.27;;;5.20;90.32
62703;BME280;66022;50.448;18.122;2023-02-11T18:22:06;100283.76;;;5.20;88.62
62703;BME280;66022;50.448;18.122;2023-02-11T18:26:20;100286.21;;;5.16;93.41
62703;BME280;66022;50.448;18.122;2023-02-11T18:30:33;100287.32;;;5.17;88.89
62703;BME280;66022;50.448;18.122;2023-02-11T18:34:47;100290.99;;;5.17;88.71
62703;BME280;66022;50.448;18.122;2023-02-11T18:39:02;100294.23;;;5.16;89.74
62703;BME280;66022;50.448;18.122;2023-02-11T18:43:16;100296.73;;;5.18;88.63
62703;BME280;66022;50.448;18.122;2023-02-11T18:47:30;100297.56;;;5.18;91.72
62703;BME280;66022;50.448;18.122;2023-02-11T18:51:44;100299.27;;;5.19;89.86
62703;BME280;66022;50.448;18.122;2023-02-11T18:55:57;100302.31;;;5.17;91.86
62703;BME280;66022;50.448;18.122;2023-02-11T19:00:12;100304.90;;;5.18;90.46
62703;BME280;66022;50.448;18.122;2023-02-11T19:04:26;100307.81;;;5.18;89.96
62703;BME280;66022;50.448;18.122;2023-02-11T19:08:40;100310.36;;;5.16;90.92
62703;BME280;66022;50.448;18.122;2023-02-11T19:12:55;100312.73;;;5.18;90.20
62703;BME280;66022;50.448;18.122;2023-02-11T19:17:08;100316.89;;;5.17;93.57
62703;BME280;66022;50.448;18.122;2023-02-11T19:21:22;100321.09;;;5.19;90.41
62703;BME280;66022;50.448;18.122;2023-02-11T19:25:36;100324.45;;;5.20;90.20
62703;BME280;66022;50.448;18.122;2023-02-11T19:29:50;100327.12;;;5.20;90.98
62703;BME280;66022;50.448;18.122;2023-02-11T19:34:04;100329.46;;;5.21;90.50
62703;BME280;66022;50.448;18.122;2023-02-11T19:38:18;100330.39;;;5.18;91.27
62703;BME280;66022;50.448;18.122;2023-02-11T19:42:36;100332.62;;;5.20;90.35
62703;BME280;66022;50.448;18.122;2023-02-11T19:46:46;100335.60;;;5.19;94.95
62703;BME280;66022;50.448;18.122;2023-02-11T19:55:15;100338.65;;;5.22;90.43
62703;BME280;66022;50.448;18.122;2023-02-11T19:59:28;100340.40;;;5.23;90.82
62703;BME280;66022;50.448;18.122;2023-02-11T20:03:42;100341.27;;;5.25;90.92
62703;BME280;66022;50.448;18.122;2023-02-11T20:07:56;100341.47;;;5.25;91.75
62703;BME280;66022;50.448;18.122;2023-02-11T20:12:10;100343.08;;;5.28;90.92
62703;BME280;66022;50.448;18.122;2023-02-11T20:16:26;100343.43;;;5.25;95.36
62703;BME280;66022;50.448;18.122;2023-02-11T20:20:38;100345.58;;;5.28;91.19
62703;BME280;66022;50.448;18.122;2023-02-11T20:24:52;100347.36;;;5.30;90.76
62703;BME280;66022;50.448;18.122;2023-02-11T20:29:07;100351.28;;;5.30;91.53
62703;BME280;66022;50.448;18.122;2023-02-11T20:33:20;100354.05;;;5.32;90.51
62703;BME280;66022;50.448;18.122;2023-02-11T20:37:37;100357.06;;;5.32;93.16
62703;BME280;66022;50.448;18.122;2023-02-11T20:41:48;100357.42;;;5.34;91.61
62703;BME280;66022;50.448;18.122;2023-02-11T20:46:02;100358.31;;;5.32;93.75
62703;BME280;66022;50.448;18.122;2023-02-11T20:50:16;100360.58;;;5.35;91.45
62703;BME280;66022;50.448;18.122;2023-02-11T20:54:30;100361.74;;;5.38;91.02
62703;BME280;66022;50.448;18.122;2023-02-11T20:58:47;100365.48;;;5.38;92.26
62703;BME280;66022;50.448;18.122;2023-02-11T21:02:59;100369.87;;;5.41;91.25
62703;BME280;66022;50.448;18.122;2023-02-11T21:07:12;100374.80;;;5.42;93.51
62703;BME280;66022;50.448;18.122;2023-02-11T21:11:26;100377.98;;;5.44;91.51
62703;BME280;66022;50.448;18.122;2023-02-11T21:15:40;100381.69;;;5.45;91.73
62703;BME280;66022;50.448;18.122;2023-02-11T21:19:54;100386.69;;;5.46;91.73
62703;BME280;66022;50.448;18.122;2023-02-11T21:24:08;100393.67;;;5.48;91.37
62703;BME280;66022;50.448;18.122;2023-02-11T21:28:22;100401.73;;;5.46;93.27
62703;BME280;66022;50.448;18.122;2023-02-11T21:32:36;100409.06;;;5.47;91.77
62703;BME280;66022;50.448;18.122;2023-02-11T21:36:51;100414.78;;;5.45;95.96
62703;BME280;66022;50.448;18.122;2023-02-11T21:41:04;100420.40;;;5.46;92.01
62703;BME280;66022;50.448;18.122;2023-02-11T21:45:19;100426.39;;;5.48;92.13
62703;BME280;66022;50.448;18.122;2023-02-11T21:49:32;100434.18;;;5.50;92.66
62703;BME280;66022;50.448;18.122;2023-02-11T21:53:46;100440.41;;;5.52;91.87
62703;BME280;66022;50.448;18.122;2023-02-11T21:58:00;100442.91;;;5.52;93.53
62703;BME280;66022;50.448;18.122;2023-02-11T22:02:14;100444.36;;;5.54;92.26
62703;BME280;66022;50.448;18.122;2023-02-11T22:06:30;100444.67;;;5.53;96.03
62703;BME280;66022;50.448;18.122;2023-02-11T22:10:42;100445.31;;;5.56;92.70
62703;BME280;66022;50.448;18.122;2023-02-11T22:14:56;100446.51;;;5.58;92.47
62703;BME280;66022;50.448;18.122;2023-02-11T22:19:10;100447.43;;;5.59;93.38
62703;BME280;66022;50.448;18.122;2023-02-11T22:23:27;100450.08;;;5.61;92.87
62703;BME280;66022;50.448;18.122;2023-02-11T22:27:38;100455.08;;;5.63;95.52
62703;BME280;66022;50.448;18.122;2023-02-11T22:31:52;100459.06;;;5.66;92.95
62703;BME280;66022;50.448;18.122;2023-02-11T22:36:07;100463.15;;;5.65;95.92
62703;BME280;66022;50.448;18.122;2023-02-11T22:40:20;100467.02;;;5.69;93.05
62703;BME280;66022;50.448;18.122;2023-02-11T22:44:35;100472.58;;;5.71;92.76
62703;BME280;66022;50.448;18.122;2023-02-11T22:48:48;100477.67;;;5.72;93.55
62703;BME280;66022;50.448;18.122;2023-02-11T22:53:02;100482.15;;;5.75;92.68
62703;BME280;66022;50.448;18.122;2023-02-11T22:57:19;100486.91;;;5.75;95.24
62703;BME280;66022;50.448;18.122;2023-02-11T23:01:30;100490.86;;;5.78;92.54
62703;BME280;66022;50.448;18.122;2023-02-11T23:05:47;100493.64;;;5.79;92.31
62703;BME280;66022;50.448;18.122;2023-02-11T23:10:00;100497.51;;;5.81;92.83
62703;BME280;66022;50.448;18.122;2023-02-11T23:14:12;100501.37;;;5.83;92.14
62703;BME280;66022;50.448;18.122;2023-02-11T23:18:26;100504.06;;;5.80;93.63
62703;BME280;66022;50.448;18.122;2023-02-11T23:22:40;100508.38;;;5.82;92.61
62703;BME280;66022;50.448;18.122;2023-02-11T23:26:54;100510.85;;;5.82;95.41
62703;BME280;66022;50.448;18.122;2023-02-11T23:35:22;100516.14;;;5.83;92.45
62703;BME280;66022;50.448;18.122;2023-02-11T23:39:39;100518.30;;;5.83;93.40
62703;BME280;66022;50.448;18.122;2023-02-11T23:43:51;100520.42;;;5.84;92.37
62703;BME280;66022;50.448;18.122;2023-02-11T23:48:04;100521.64;;;5.82;93.80
62703;BME280;66022;50.448;18.122;2023-02-11T23:52:18;100523.10;;;5.84;92.28
62703;BME280;66022;50.448;18.122;2023-02-11T23:56:32;100525.11;;;5.81;96.61
